Time;durP1;ratioP1;P1;durP2;ratioP2;P2;SDS_P1;SDS_P2;PMS_P1;PMS_P2;Temp;Humidity;BMP_temperature;BMP_pressure;BME280_temperature;BME280_humidity;BME280_pressure;Samples;Min_cycle;Max_cycle;Signal;HPM_P1;HPM_P2
2023/03/12 09:56:13;;;;;;;;;2.00;2.00;;;;;13.13;69.51;101041.88;6001548;23;47098;31
2023/03/12 10:03:11;;;;;;;;;;;;;;;;;;;;;
2023/03/12 10:06:58;;;;;;;;;;;;;;;;;;;;;
2023/03/12 10:29:12;;;;;;;;;6.50;3.00;;;;;12.93;66.68;100938.13;5044557;23;45508;-74
2023/03/12 10:35:39;;;;;;;;;3.50;2.50;;;;;13.51;66.36;101036.84;4891873;29;45516;-76
2023/03/12 12:13:09;;;;;;;;;;;;;;;;;;;;;
2023/03/12 12:39:08;;;;;;;;;2.50;1.25;;;;;14.26;62.70;100967.53;5176573;23;45592;-77
2023/03/12 12:42:12;;;;;;;;;2.75;2.00;;;;;13.88;62.57;100881.50;4870849;29;45752;-78
2023/03/12 12:48:25;;;;;;;;;2.50;2.00;;;;;13.91;62.03;100865.25;5107312;23;46080;-79
2023/03/12 12:50:52;;;;;;;;;4.75;4.00;;;;;14.00;62.21;100885.44;4876925;29;47286;-66
2023/03/12 12:53:32;;;;;;;;;4.00;3.00;;;;;14.46;61.32;100951.38;4893715;29;45496;-67
2023/03/12 12:56:16;;;;;;;;;7.75;2.50;;;;;14.44;61.91;100934.47;4903097;28;45517;-67
2023/03/12 12:59:10;;;;;;;;;4.25;1.25;;;;;14.55;62.35;100936.69;4880269;29;45661;-67
2023/03/12 13:01:37;;;;;;;;;4.50;2.75;;;;;14.59;61.58;100938.31;4873861;29;45804;-66
2023/03/12 13:04:12;;;;;;;;;5.50;3.00;;;;;14.65;60.86;100939.84;4871056;29;45723;-66
2023/03/12 13:06:54;;;;;;;;;4.25;2.75;;;;;14.68;61.05;100938.81;4863465;29;45466;-66
2023/03/12 13:09:33;;;;;;;;;3.50;2.50;;;;;14.67;60.75;100937.06;4867503;29;45881;-69
2023/03/12 13:12:06;;;;;;;;;3.50;2.25;;;;;14.64;60.80;100925.53;4877854;29;45586;-68
2023/03/12 13:14:38;;;;;;;;;1.75;1.50;;;;;14.71;61.01;100919.88;4870998;29;45732;-69
2023/03/12 13:17:24;;;;;;;;;3.00;2.00;;;;;14.75;60.24;100925.03;4871939;29;45428;-70
2023/03/12 13:19:51;;;;;;;;;2.25;2.25;;;;;14.69;60.07;100906.50;4863805;29;45566;-68
2023/03/12 13:22:37;;;;;;;;;2.00;2.00;;;;;14.73;60.40;100902.72;4892908;29;48020;-69
2023/03/12 13:25:24;;;;;;;;;5.00;3.00;;;;;14.84;60.78;100920.19;4871595;29;45490;-70
2023/03/12 13:27:58;;;;;;;;;4.50;2.00;;;;;14.81;60.52;100910.44;4870506;29;46775;-68
2023/03/12 13:30:32;;;;;;;;;2.50;2.50;;;;;14.90;60.39;100918.06;4869407;29;45528;-67
2023/03/12 13:32:57;;;;;;;;;4.00;2.00;;;;;14.92;60.46;100918.00;4875186;29;46153;-67
2023/03/12 13:35:22;;;;;;;;;5.50;1.75;;;;;14.94;60.81;100929.53;4863217;29;45467;-67
2023/03/12 13:37:51;;;;;;;;;5.00;2.33;;;;;14.98;60.70;100928.44;4867727;29;45425;-67
2023/03/12 13:40:28;;;;;;;;;4.50;1.75;;;;;14.99;60.42;100933.75;4847912;29;45582;-67
2023/03/12 13:43:13;;;;;;;;;6.00;3.25;;;;;15.00;60.79;100924.75;4860682;29;48323;-68
2023/03/12 13:46:04;;;;;;;;;2.25;2.00;;;;;14.93;60.20;100906.28;4862582;29;45450;-68
2023/03/12 13:48:33;;;;;;;;;4.50;3.00;;;;;14.91;60.05;100900.13;4877694;29;45472;-73
2023/03/12 13:51:10;;;;;;;;;5.50;3.25;;;;;15.04;60.26;100917.41;4868972;29;45772;-68
2023/03/12 13:53:38;;;;;;;;;4.00;3.00;;;;;15.05;60.17;100916.47;4864884;29;47785;-69
2023/03/12 13:56:11;;;;;;;;;3.00;2.00;;;;;15.06;60.15;100907.44;4878381;29;46370;-69
2023/03/12 13:58:58;;;;;;;;;2.75;1.50;;;;;15.01;60.20;100901.41;4880196;29;45455;-69
2023/03/12 14:01:30;;;;;;;;;4.25;2.75;;;;;15.07;60.10;100892.16;4876070;29;45922;-68
2023/03/12 14:04:10;;;;;;;;;;;;;;;;;;;;;
2023/03/12 14:07:10;;;;;;;;;2.50;2.00;;;;;15.05;60.38;100877.94;4872983;29;72779;-68
2023/03/12 14:09:46;;;;;;;;;10.50;3.50;;;;;14.94;60.39;100865.03;4875297;29;45480;-68
2023/03/12 14:12:34;;;;;;;;;5.00;2.00;;;;;15.12;60.48;100893.72;4874380;29;45492;-68
2023/03/12 14:15:09;;;;;;;;;5.00;3.00;;;;;15.08;60.19;100884.03;4874847;29;45867;-68
2023/03/12 14:17:37;;;;;;;;;2.50;2.00;;;;;15.08;60.13;100884.03;4879560;29;45435;-68
2023/03/12 14:20:36;;;;;;;;;5.00;1.75;;;;;15.09;60.08;100885.78;4880087;29;45625;-68
2023/03/12 14:23:16;;;;;;;;;;;;;;;;;;;;;
2023/03/12 14:25:47;;;;;;;;;4.00;2.00;;;;;14.87;59.79;100845.66;4874800;29;75149;-68
2023/03/12 14:28:23;;;;;;;;;3.00;2.00;;;;;14.92;59.93;100862.41;4879004;29;45808;-68
2023/03/12 14:30:51;;;;;;;;;3.00;2.00;;;;;15.12;60.04;100884.78;4873313;29;45638;-68
2023/03/12 14:33:18;;;;;;;;;5.00;1.75;;;;;14.89;60.08;100843.75;4872525;29;45552;-68
2023/03/12 14:35:50;;;;;;;;;3.25;2.75;;;;;15.04;59.63;100860.94;4873520;29;46250;-68
2023/03/12 14:38:31;;;;;;;;;3.25;1.75;;;;;15.05;59.34;100865.41;4874269;29;45598;-69
2023/03/12 14:41:03;;;;;;;;;3.50;2.00;;;;;15.01;59.34;100848.50;4862929;29;45719;-68
2023/03/12 14:43:32;;;;;;;;;5.25;3.00;;;;;14.76;59.46;100813.91;4868224;29;45726;-68
2023/03/12 14:46:08;;;;;;;;;2.50;2.50;;;;;14.83;59.63;100806.41;4873940;29;45540;-68
2023/03/12 14:48:35;;;;;;;;;3.25;2.00;;;;;14.75;59.60;100801.44;4882287;29;45478;-68
2023/03/12 14:51:03;;;;;;;;;4.25;3.50;;;;;14.84;59.79;100821.59;4879391;29;45613;-68
2023/03/12 14:53:36;;;;;;;;;2.75;2.00;;;;;14.69;59.45;100807.09;4877749;29;45785;-69
2023/03/12 14:56:09;;;;;;;;;3.00;1.75;;;;;14.96;59.51;100860.44;4874545;29;47329;-68
2023/03/12 14:58:43;;;;;;;;;0.00;0.00;;;;;14.82;59.67;100827.06;4866766;29;45694;-68
2023/03/12 15:01:12;;;;;;;;;2.00;0.00;;;;;14.88;59.45;100847.38;4859095;29;45808;-68
2023/03/12 15:03:48;;;;;;;;;5.00;1.00;;;;;14.96;59.04;100863.13;4877061;29;45752;-68
2023/03/12 15:06:28;;;;;;;;;4.00;2.25;;;;;14.74;59.33;100831.94;4879027;29;46146;-68
2023/03/12 15:08:54;;;;;;;;;2.25;2.00;;;;;14.96;59.36;100864.00;4877095;29;45602;-69
2023/03/12 15:11:24;;;;;;;;;3.50;2.50;;;;;15.01;59.76;100867.34;4876688;29;45909;-68
2023/03/12 15:14:03;;;;;;;;;;;;;;;;;;;;;
2023/03/12 15:16:42;;;;;;;;;5.00;1.00;;;;;14.99;60.38;100846.88;4876523;29;74817;-68
2023/03/12 15:19:12;;;;;;;;;4.00;4.00;;;;;14.82;60.02;100826.19;4872923;29;45763;-69
2023/03/12 15:21:38;;;;;;;;;3.50;2.75;;;;;14.91;59.82;100839.16;4878054;29;45769;-68
2023/03/12 15:24:12;;;;;;;;;2.00;1.50;;;;;14.78;60.46;100798.59;4867763;29;45479;-68
2023/03/12 15:26:40;;;;;;;;;6.25;4.00;;;;;14.89;60.70;100821.41;4877460;29;45452;-68
2023/03/12 15:29:42;;;;;;;;;3.25;2.25;;;;;14.78;60.42;100801.28;4878583;29;45555;-68
2023/03/12 15:32:13;;;;;;;;;5.00;3.00;;;;;14.99;60.56;100844.19;4848867;29;45879;-68
2023/03/12 15:34:39;;;;;;;;;5.00;2.00;;;;;14.89;60.19;100826.75;4878892;29;45583;-68
2023/03/12 15:37:52;;;;;;;;;2.00;2.00;;;;;14.73;59.99;100797.94;4878868;29;46104;-68
2023/03/12 15:40:36;;;;;;;;;6.25;2.75;;;;;14.77;60.30;100796.84;4784914;29;45874;-67
2023/03/12 15:43:04;;;;;;;;;4.25;3.00;;;;;14.84;60.13;100805.47;4868902;29;45795;-68
2023/03/12 15:45:39;;;;;;;;;2.25;2.25;;;;;14.72;60.50;100781.91;4877343;29;45884;-69
2023/03/12 15:48:26;;;;;;;;;2.00;1.00;;;;;14.95;60.44;100819.28;4878429;29;46068;-69
2023/03/12 15:51:12;;;;;;;;;5.25;5.25;;;;;14.78;60.39;100809.34;4877166;29;45481;-67
2023/03/12 15:53:40;;;;;;;;;2.50;2.50;;;;;14.87;60.45;100813.41;4878233;29;45334;-68
2023/03/12 15:56:24;;;;;;;;;8.75;2.00;;;;;14.82;60.51;100816.31;4895863;29;45678;-68
2023/03/12 15:59:18;;;;;;;;;3.25;2.25;;;;;14.76;60.25;100794.25;4894898;29;47219;-68
2023/03/12 16:01:56;;;;;;;;;3.75;2.00;;;;;14.67;60.40;100792.00;4881845;29;45355;-68
2023/03/12 16:04:23;;;;;;;;;2.25;1.75;;;;;14.70;60.37;100800.78;4878210;29;45463;-68
2023/03/12 16:06:50;;;;;;;;;3.75;2.50;;;;;14.75;60.33;100813.97;4880449;29;45413;-67
2023/03/12 16:09:26;;;;;;;;;0.00;0.00;;;;;14.86;60.21;100829.59;4880111;29;46449;-68
2023/03/12 16:11:54;;;;;;;;;2.75;1.00;;;;;14.57;60.58;100788.88;4881949;29;45376;-68
2023/03/12 16:14:27;;;;;;;;;5.25;3.25;;;;;14.54;60.35;100776.44;4879272;29;45351;-68
2023/03/12 16:16:52;;;;;;;;;4.00;3.00;;;;;14.64;60.35;100801.09;4881553;29;45461;-68
2023/03/12 16:19:23;;;;;;;;;2.50;1.50;;;;;14.66;60.41;100793.81;4873807;29;46074;-68
2023/03/12 16:21:49;;;;;;;;;2.25;1.00;;;;;14.79;60.59;100824.50;4880927;29;45546;-68
2023/03/12 16:24:19;;;;;;;;;3.50;1.00;;;;;14.79;60.83;100812.91;4879767;29;45439;-68
2023/03/12 16:26:49;;;;;;;;;4.50;1.00;;;;;14.63;60.54;100781.41;4879806;29;45500;-68
2023/03/12 16:29:18;;;;;;;;;6.00;3.00;;;;;14.62;61.04;100779.66;4866277;29;48068;-68
2023/03/12 16:31:55;;;;;;;;;4.00;3.00;;;;;14.52;61.14;100745.25;4881693;29;45317;-68
2023/03/12 16:34:21;;;;;;;;;3.25;3.00;;;;;14.70;61.14;100767.66;4875826;29;45574;-68
2023/03/12 16:36:50;;;;;;;;;2.75;2.75;;;;;14.68;60.99;100773.09;4881431;29;45446;-68
2023/03/12 16:39:15;;;;;;;;;7.00;4.25;;;;;14.82;61.15;100784.06;4878117;29;47418;-68
2023/03/12 16:41:43;;;;;;;;;5.50;2.25;;;;;14.91;61.03;100798.00;4878391;29;45437;-68
2023/03/12 16:44:19;;;;;;;;;3.00;2.00;;;;;14.72;61.47;100779.22;4876625;29;45434;-68
2023/03/12 16:46:47;;;;;;;;;2.75;2.50;;;;;14.54;61.70;100746.03;4864424;29;45440;-68
2023/03/12 16:49:22;;;;;;;;;6.00;3.00;;;;;14.56;61.86;100758.44;4881090;29;48186;-68
2023/03/12 16:51:48;;;;;;;;;5.75;3.00;;;;;14.79;61.89;100792.28;4883913;29;45503;-68
2023/03/12 16:54:14;;;;;;;;;4.50;3.50;;;;;14.63;62.02;100759.03;4876530;29;45464;-68
2023/03/12 16:56:45;;;;;;;;;4.00;3.00;;;;;14.68;62.04;100765.06;4898858;29;45619;-67
2023/03/12 16:59:32;;;;;;;;;4.50;3.25;;;;;14.77;62.30;100767.28;4882768;29;45555;-68
2023/03/12 17:01:57;;;;;;;;;5.00;4.00;;;;;14.53;62.35;100729.03;4865025;29;45535;-68
2023/03/12 17:04:28;;;;;;;;;3.00;2.75;;;;;14.85;62.40;100784.84;4868121;29;45497;-68
2023/03/12 17:06:55;;;;;;;;;3.75;3.00;;;;;14.56;62.51;100726.19;4877199;29;45640;-68
2023/03/12 17:09:31;;;;;;;;;;;;;;;;;;;;;
2023/03/12 17:11:57;;;;;;;;;6.25;3.75;;;;;14.79;62.90;100751.09;4872716;29;72859;-67
2023/03/12 17:14:31;;;;;;;;;5.50;4.00;;;;;14.60;63.05;100733.22;4878529;29;45572;-67
2023/03/12 17:16:56;;;;;;;;;8.00;3.25;;;;;14.86;62.54;100770.47;4873985;29;45478;-68
2023/03/12 17:19:22;;;;;;;;;6.75;3.00;;;;;14.50;62.63;100696.09;4883050;29;46405;-68
2023/03/12 17:21:48;;;;;;;;;6.00;6.00;;;;;14.66;63.07;100713.22;4882927;29;45517;-67
2023/03/12 17:24:13;;;;;;;;;8.50;4.75;;;;;14.79;62.95;100724.22;4884084;29;45467;-67
2023/03/12 17:26:40;;;;;;;;;4.50;4.25;;;;;14.63;62.86;100686.50;4871361;29;45566;-67
2023/03/12 17:29:06;;;;;;;;;4.75;4.25;;;;;14.43;62.94;100656.13;4867401;29;47771;-67
2023/03/12 17:31:31;;;;;;;;;6.00;4.25;;;;;14.55;63.15;100673.44;4878259;29;45362;-67
2023/03/12 17:33:57;;;;;;;;;5.50;3.00;;;;;14.75;63.28;100706.50;4862464;29;45447;-67
2023/03/12 17:36:25;;;;;;;;;7.00;6.00;;;;;14.50;63.26;100672.81;4882012;29;45546;-67
2023/03/12 17:38:50;;;;;;;;;6.50;4.50;;;;;14.64;63.38;100699.00;4883849;29;46720;-67
2023/03/12 17:41:16;;;;;;;;;7.25;3.00;;;;;14.50;63.50;100686.22;4867974;29;45794;-67
2023/03/12 17:43:41;;;;;;;;;8.25;6.00;;;;;14.59;63.83;100696.53;4882416;29;45336;-67
2023/03/12 17:46:08;;;;;;;;;6.50;5.50;;;;;14.75;63.67;100726.22;4898106;28;45460;-67
2023/03/12 17:48:34;;;;;;;;;7.00;5.25;;;;;14.58;63.77;100685.81;4882056;29;45613;-67
2023/03/12 17:51:06;;;;;;;;;5.50;5.00;;;;;14.54;64.10;100677.06;4877849;29;45509;-67
2023/03/12 17:53:31;;;;;;;;;4.50;3.00;;;;;14.55;63.75;100677.91;4872460;29;46496;-67
2023/03/12 17:55:57;;;;;;;;;5.00;5.00;;;;;14.54;63.88;100687.81;4883185;29;45470;-67
2023/03/12 17:58:22;;;;;;;;;7.00;6.00;;;;;14.60;63.76;100697.41;4883574;29;46291;-67
2023/03/12 18:00:48;;;;;;;;;8.25;6.00;;;;;14.55;63.96;100681.50;4882110;29;45527;-67
2023/03/12 18:03:13;;;;;;;;;5.75;5.00;;;;;14.48;64.01;100665.75;4871235;29;45466;-67
2023/03/12 18:05:41;;;;;;;;;8.00;5.00;;;;;14.36;63.93;100645.75;4882489;29;45582;-67
2023/03/12 18:08:08;;;;;;;;;10.50;6.25;;;;;14.53;64.12;100674.44;4857241;29;47753;-67
2023/03/12 18:10:41;;;;;;;;;9.50;5.25;;;;;14.61;63.84;100700.00;4880877;29;45616;-67
2023/03/12 18:13:06;;;;;;;;;10.50;8.00;;;;;14.46;64.40;100664.00;4881652;29;45434;-67
2023/03/12 18:15:32;;;;;;;;;10.50;8.50;;;;;14.51;64.39;100671.84;4872154;29;45591;-67
2023/03/12 18:17:59;;;;;;;;;8.75;6.25;;;;;14.52;64.29;100664.66;4882937;29;45580;-67
2023/03/12 18:20:25;;;;;;;;;5.50;5.00;;;;;14.51;64.56;100665.59;4882924;29;45542;-67
2023/03/12 18:22:53;;;;;;;;;6.00;5.00;;;;;14.49;64.90;100678.25;4883472;29;45519;-68
2023/03/12 18:25:19;;;;;;;;;9.75;7.00;;;;;14.59;64.83;100679.56;4874644;29;45653;-67
2023/03/12 18:27:44;;;;;;;;;6.00;4.25;;;;;14.56;64.85;100672.47;4881552;29;45688;-67
2023/03/12 18:30:11;;;;;;;;;6.00;6.00;;;;;14.48;64.69;100652.31;4894087;29;45435;-67
2023/03/12 18:32:37;;;;;;;;;7.00;5.50;;;;;14.48;65.05;100652.31;4870526;29;45329;-67
2023/03/12 18:35:05;;;;;;;;;5.50;4.25;;;;;14.52;65.14;100653.94;4876600;29;45755;-67
2023/03/12 18:37:31;;;;;;;;;6.00;5.00;;;;;14.70;65.08;100682.56;4880000;29;47185;-67
2023/03/12 18:39:56;;;;;;;;;8.00;6.00;;;;;14.61;65.08;100669.59;4882627;29;45412;-67
2023/03/12 18:42:22;;;;;;;;;9.50;5.00;;;;;14.50;64.90;100645.06;4881430;29;45463;-67
2023/03/12 18:44:49;;;;;;;;;7.50;6.25;;;;;14.53;65.25;100643.06;4876788;29;45533;-67
2023/03/12 18:47:15;;;;;;;;;9.25;9.00;;;;;14.58;65.58;100640.16;4876085;29;45464;-67
2023/03/12 18:49:43;;;;;;;;;10.75;7.50;;;;;14.51;65.06;100625.31;4881133;29;45431;-67
2023/03/12 18:52:08;;;;;;;;;11.00;9.25;;;;;14.75;65.36;100656.34;4865858;29;45456;-67
2023/03/12 18:54:34;;;;;;;;;9.25;8.25;;;;;14.53;65.36;100618.91;4879515;29;45295;-67
2023/03/12 18:56:59;;;;;;;;;11.25;8.00;;;;;14.43;65.72;100612.25;4874009;29;46462;-67
2023/03/12 18:59:25;;;;;;;;;8.00;5.25;;;;;14.50;65.46;100616.41;4896983;29;45589;-67
2023/03/12 19:01:54;;;;;;;;;7.00;6.00;;;;;14.70;65.66;100649.44;4880767;29;45439;-67
2023/03/12 19:04:19;;;;;;;;;6.00;6.00;;;;;14.53;65.68;100618.91;4879100;29;45681;-67
2023/03/12 19:06:47;;;;;;;;;9.25;4.50;;;;;14.51;65.76;100615.44;4873938;29;45780;-67
2023/03/12 19:09:13;;;;;;;;;10.00;8.25;;;;;14.51;65.55;100607.38;4872634;29;45584;-67
2023/03/12 19:11:38;;;;;;;;;6.00;5.25;;;;;14.49;65.48;100603.91;4879933;29;45604;-67
2023/03/12 19:14:04;;;;;;;;;6.00;6.00;;;;;14.64;65.93;100638.06;4874507;29;45401;-67
2023/03/12 19:16:30;;;;;;;;;7.00;5.50;;;;;14.53;65.65;100601.94;4870169;29;46102;-67
2023/03/12 19:18:56;;;;;;;;;6.75;6.00;;;;;14.49;65.78;100593.16;4883123;29;45504;-67
2023/03/12 19:21:22;;;;;;;;;8.00;6.50;;;;;14.72;65.80;100629.63;4876742;29;45492;-67
2023/03/12 19:23:47;;;;;;;;;5.75;5.00;;;;;14.69;65.57;100615.50;4869753;29;45384;-67
2023/03/12 19:26:13;;;;;;;;;12.00;7.00;;;;;14.44;65.82;100574.59;4880350;29;47977;-67
2023/03/12 19:28:43;;;;;;;;;7.00;4.00;;;;;14.58;65.70;100599.88;4868904;29;45513;-68
2023/03/12 19:31:14;;;;;;;;;8.00;6.00;;;;;14.54;65.60;100587.56;4871928;29;45410;-68
2023/03/12 19:33:40;;;;;;;;;9.50;9.00;;;;;14.58;65.88;100581.97;4865617;29;45851;-68
2023/03/12 19:36:26;;;;;;;;;8.50;8.50;;;;;14.32;66.12;100548.38;4876498;29;47209;-69
2023/03/12 19:38:51;;;;;;;;;6.50;6.25;;;;;14.52;66.09;100589.47;4870885;29;45718;-69
2023/03/12 19:41:19;;;;;;;;;10.25;8.50;;;;;14.61;66.19;100589.00;4872989;29;45424;-69
2023/03/12 19:44:13;;;;;;;;;9.25;6.75;;;;;14.66;66.74;100611.13;4876895;29;45735;-69
2023/03/12 19:46:30;;;;;;;;;7.75;6.00;;;;;14.44;66.71;100571.03;4862032;29;45660;-68
2023/03/12 19:48:56;;;;;;;;;9.00;5.75;;;;;14.41;67.26;100566.69;4857424;29;47012;-68
2023/03/12 19:51:38;;;;;;;;;;;;;;;;;;;;;
2023/03/12 19:54:12;;;;;;;;;9.00;2.75;;;;;14.60;67.98;100587.25;4876666;29;73128;-68
2023/03/12 19:56:38;;;;;;;;;8.50;5.00;;;;;14.50;67.87;100572.53;4878961;29;46347;-67
2023/03/12 19:59:05;;;;;;;;;5.75;5.00;;;;;14.63;68.49;100595.16;4887974;29;45629;-67
2023/03/12 20:01:31;;;;;;;;;6.75;5.25;;;;;14.46;68.57;100550.34;4876383;29;45643;-68
2023/03/12 20:03:56;;;;;;;;;5.00;5.00;;;;;14.42;69.39;100555.00;4875478;29;45472;-68
2023/03/12 20:07:11;;;;;;;;;;;;;;;;;;;;;
2023/03/12 20:09:37;;;;;;;;;4.00;3.25;;;;;14.45;69.58;100549.50;4872278;29;72810;-68
2023/03/12 22:01:56;;;;;;;;;4.00;2.00;;;;;13.78;78.01;100445.56;5895026;22;10349817;-68
2023/03/12 22:08:00;;;;;;;;;;;;;;;;;;;;;
2023/03/12 22:11:09;;;;;;;;;2.00;2.00;;;;;13.80;78.65;100447.22;6304048;22;68806;-65
2023/03/12 22:14:24;;;;;;;;;;;;;;;;;;;;;
2023/03/12 22:17:49;;;;;;;;;;;;;;;;;;;;;
2023/03/12 22:21:06;;;;;;;;;;;;;;;;;;;;;
2023/03/12 22:24:11;;;;;;;;;;;;;;;;;;;;;
2023/03/12 22:27:10;;;;;;;;;;;;;;;;;;;;;
2023/03/12 22:44:19;;;;;;;;;;;;;;;;;;;;;
2023/03/12 22:47:26;;;;;;;;;;;;;;;;;;;;;
2023/03/12 22:57:31;;;;;;;;;;;;;;;;;;;;;
2023/03/12 23:07:51;;;;;;;;;;;;;;;;;;;;;
2023/03/12 23:14:13;;;;;;;;;;;;;;;;;;;;;
2023/03/12 23:17:15;;;;;;;;;;;;;;;;;;;;;
2023/03/12 23:27:19;;;;;;;;;;;;;;;;;;;;;
